createdAt,value
2017-11-27T00:01:20.922Z,3.30
2017-11-27T00:03:48.387Z,3.30
2017-11-27T00:06:15.918Z,3.30
2017-11-27T00:08:43.359Z,3.30
2017-11-27T00:11:10.931Z,3.30
2017-11-27T00:13:39.156Z,3.20
2017-11-27T00:16:06.583Z,3.20
2017-11-27T00:18:34.011Z,3.20
2017-11-27T00:21:01.453Z,3.10
2017-11-27T00:23:28.922Z,3.10
2017-11-27T00:25:56.386Z,3.10
2017-11-27T00:28:24.573Z,3.20
2017-11-27T00:30:52.081Z,3.10
2017-11-27T00:33:19.532Z,3.20
2017-11-27T00:35:46.971Z,3.20
2017-11-27T00:38:14.404Z,3.20
2017-11-27T00:40:41.840Z,3.20
2017-11-27T00:43:09.290Z,3.10
2017-11-27T00:45:36.849Z,3.10
2017-11-27T00:48:04.281Z,3.20
2017-11-27T00:50:31.729Z,3.20
2017-11-27T00:52:59.390Z,3.20
2017-11-27T00:55:27.603Z,3.20
2017-11-27T00:57:55.038Z,3.20
2017-11-27T01:00:22.483Z,3.10
2017-11-27T01:02:50.097Z,3.10
2017-11-27T01:05:18.336Z,3.00
2017-11-27T01:07:46.591Z,3.00
2017-11-27T01:10:14.020Z,3.00
2017-11-27T01:12:41.509Z,3.00
2017-11-27T01:15:09.742Z,3.00
2017-11-27T01:17:37.196Z,3.00
2017-11-27T01:20:05.429Z,3.00
2017-11-27T01:22:32.930Z,3.00
2017-11-27T01:25:00.377Z,3.00
2017-11-27T01:27:27.853Z,3.00
2017-11-27T01:29:55.292Z,3.00
2017-11-27T01:32:22.730Z,3.00
2017-11-27T01:34:50.293Z,3.00
2017-11-27T01:37:17.833Z,3.00
2017-11-27T01:39:45.286Z,3.00
2017-11-27T01:42:12.730Z,2.90
2017-11-27T01:44:40.163Z,2.90
2017-11-27T01:47:07.593Z,3.00
2017-11-27T01:49:35.033Z,3.00
2017-11-27T01:52:02.490Z,3.00
2017-11-27T01:54:30.054Z,3.00
2017-11-27T01:56:57.481Z,2.90
2017-11-27T01:59:24.930Z,2.90
2017-11-27T02:01:52.386Z,2.80
2017-11-27T02:04:19.825Z,2.80
2017-11-27T02:06:47.358Z,2.70
2017-11-27T02:09:14.793Z,2.70
2017-11-27T02:11:42.253Z,2.70
2017-11-27T02:14:09.709Z,2.70
2017-11-27T02:16:37.949Z,2.60
2017-11-27T02:19:05.383Z,2.60
2017-11-27T02:21:32.924Z,2.60
2017-11-27T02:24:00.361Z,2.70
2017-11-27T02:26:27.813Z,2.70
2017-11-27T02:28:55.249Z,2.70
2017-11-27T02:31:22.700Z,2.70
2017-11-27T02:33:50.149Z,2.70
2017-11-27T02:36:17.606Z,2.70
2017-11-27T02:38:45.033Z,2.70
2017-11-27T02:41:12.574Z,2.80
2017-11-27T02:43:40.016Z,2.80
2017-11-27T02:46:07.443Z,2.90
2017-11-27T02:48:34.877Z,2.90
2017-11-27T02:51:02.317Z,2.90
2017-11-27T02:53:29.792Z,3.00
2017-11-27T02:55:57.328Z,2.90
2017-11-27T02:58:24.789Z,3.00
2017-11-27T03:00:53.034Z,3.00
2017-11-27T03:03:20.472Z,2.90
2017-11-27T03:05:47.923Z,3.00
2017-11-27T03:08:15.354Z,2.90
2017-11-27T03:10:42.807Z,3.00
2017-11-27T03:13:10.233Z,2.90
2017-11-27T03:15:37.674Z,3.00
2017-11-27T03:18:05.115Z,3.00
2017-11-27T03:20:32.548Z,3.00
2017-11-27T03:22:59.977Z,3.00
2017-11-27T03:25:27.530Z,3.10
2017-11-27T03:27:54.986Z,3.10
2017-11-27T03:30:22.416Z,3.10
2017-11-27T03:32:49.862Z,3.10
2017-11-27T03:35:17.320Z,3.10
2017-11-27T03:37:44.908Z,3.10
2017-11-27T03:40:13.101Z,3.10
2017-11-27T03:42:40.533Z,3.10
2017-11-27T03:45:07.973Z,3.10
2017-11-27T03:47:35.461Z,3.00
2017-11-27T03:50:02.910Z,3.00
2017-11-27T03:52:30.350Z,3.00
2017-11-27T03:54:57.806Z,3.10
2017-11-27T03:57:26.005Z,3.10
2017-11-27T03:59:53.505Z,3.10
2017-11-27T04:02:21.041Z,3.00
2017-11-27T04:04:48.488Z,3.00
2017-11-27T04:07:15.935Z,3.00
2017-11-27T04:09:43.449Z,3.00
2017-11-27T04:12:10.862Z,3.00
2017-11-27T04:14:38.324Z,2.90
2017-11-27T04:17:05.878Z,2.90
2017-11-27T04:19:33.362Z,2.90
2017-11-27T04:22:00.782Z,2.90
2017-11-27T04:24:28.308Z,2.90
2017-11-27T04:26:55.770Z,2.90
2017-11-27T04:29:23.229Z,3.00
2017-11-27T04:31:50.665Z,3.00
2017-11-27T04:34:18.123Z,3.10
2017-11-27T04:36:45.651Z,3.10
2017-11-27T04:39:13.911Z,3.10
2017-11-27T04:41:41.362Z,3.10
2017-11-27T04:44:08.797Z,3.10
2017-11-27T04:46:36.233Z,3.10
2017-11-27T04:49:03.678Z,3.10
2017-11-27T04:51:31.110Z,3.00
2017-11-27T04:53:58.549Z,3.00
2017-11-27T04:56:26.006Z,3.00
2017-11-27T04:58:53.555Z,3.00
2017-11-27T05:01:20.992Z,2.90
2017-11-27T05:03:48.425Z,2.90
2017-11-27T05:06:15.877Z,2.90
2017-11-27T05:08:43.314Z,2.80
2017-11-27T05:11:10.746Z,2.70
2017-11-27T05:13:38.170Z,2.70
2017-11-27T05:16:05.650Z,2.60
2017-11-27T05:18:33.092Z,2.60
2017-11-27T05:21:00.533Z,2.60
2017-11-27T05:23:27.968Z,2.50
2017-11-27T05:25:55.424Z,2.50
2017-11-27T05:28:22.954Z,2.50
2017-11-27T05:30:50.386Z,2.50
2017-11-27T05:33:17.822Z,2.50
2017-11-27T05:35:45.266Z,2.50
2017-11-27T05:38:12.693Z,2.40
2017-11-27T05:40:40.130Z,2.40
2017-11-27T05:43:07.626Z,2.50
2017-11-27T05:45:35.066Z,2.50
2017-11-27T05:48:02.509Z,2.50
2017-11-27T05:50:29.958Z,2.60
2017-11-27T05:52:57.381Z,2.60
2017-11-27T05:55:24.817Z,2.60
2017-11-27T05:57:52.267Z,2.50
2017-11-27T06:00:19.690Z,2.50
2017-11-27T06:02:47.180Z,2.50
2017-11-27T06:05:14.601Z,2.50
2017-11-27T06:07:42.042Z,2.50
2017-11-27T06:10:09.469Z,2.50
2017-11-27T06:12:36.924Z,2.50
2017-11-27T06:15:04.337Z,2.50
2017-11-27T06:17:31.770Z,2.60
2017-11-27T06:19:59.262Z,2.60
2017-11-27T06:22:26.809Z,2.60
2017-11-27T06:24:54.246Z,2.60
2017-11-27T06:27:21.801Z,2.50
2017-11-27T06:29:49.259Z,2.50
2017-11-27T06:32:16.690Z,2.50
2017-11-27T06:34:44.138Z,2.50
2017-11-27T06:37:11.567Z,2.50
2017-11-27T06:39:39.185Z,2.50
2017-11-27T06:42:06.646Z,2.50
2017-11-27T06:44:34.090Z,2.50
2017-11-27T06:47:01.566Z,2.50
2017-11-27T06:49:29.016Z,2.50
2017-11-27T06:51:56.469Z,2.50
2017-11-27T06:54:24.001Z,2.50
2017-11-27T06:56:52.210Z,2.80
2017-11-27T06:59:19.653Z,2.70
2017-11-27T07:01:47.081Z,2.80
2017-11-27T07:04:14.566Z,2.80
2017-11-27T07:06:42.101Z,2.80
2017-11-27T07:09:09.545Z,2.80
2017-11-27T07:11:36.989Z,2.70
2017-11-27T07:14:04.424Z,2.70
2017-11-27T07:16:31.866Z,2.80
2017-11-27T07:18:59.311Z,2.80
2017-11-27T07:21:26.761Z,2.80
2017-11-27T07:23:54.303Z,2.80
2017-11-27T07:26:21.747Z,2.70
2017-11-27T07:28:49.189Z,2.70
2017-11-27T07:31:16.639Z,2.70
2017-11-27T07:33:44.057Z,2.80
2017-11-27T07:36:11.529Z,2.90
2017-11-27T07:38:45.335Z,3.10
2017-11-27T07:41:13.533Z,3.20
2017-11-27T07:43:40.967Z,3.20
2017-11-27T07:46:08.401Z,3.30
2017-11-27T07:48:35.841Z,3.40
2017-11-27T07:51:03.276Z,3.50
2017-11-27T07:53:30.769Z,3.50
2017-11-27T07:55:58.214Z,3.50
2017-11-27T07:58:25.672Z,3.40
2017-11-27T08:00:53.172Z,3.50
2017-11-27T08:03:20.642Z,3.60
2017-11-27T08:05:48.082Z,3.70
2017-11-27T08:08:15.521Z,3.80
2017-11-27T08:10:42.970Z,3.90
2017-11-27T08:13:10.517Z,3.90
2017-11-27T08:15:37.954Z,4.00
2017-11-27T08:18:05.412Z,4.00
2017-11-27T08:20:32.971Z,4.00
2017-11-27T08:23:00.369Z,4.10
2017-11-27T08:25:27.829Z,4.10
2017-11-27T08:27:55.255Z,4.20
2017-11-27T08:30:22.886Z,4.20
2017-11-27T08:32:50.305Z,4.20
2017-11-27T08:35:17.904Z,4.20
2017-11-27T08:37:45.331Z,4.20
2017-11-27T08:40:12.787Z,4.10
2017-11-27T08:42:40.381Z,4.00
2017-11-27T08:45:07.783Z,4.10
2017-11-27T08:47:35.313Z,4.10
2017-11-27T08:50:02.843Z,4.00
2017-11-27T08:52:30.284Z,4.10
2017-11-27T08:54:57.730Z,4.10
2017-11-27T08:57:25.167Z,4.20
2017-11-27T08:59:52.754Z,4.20
2017-11-27T09:02:20.201Z,4.30
2017-11-27T09:04:47.728Z,4.40
2017-11-27T09:07:15.944Z,4.40
2017-11-27T09:09:43.374Z,4.40
2017-11-27T09:12:10.829Z,4.40
2017-11-27T09:14:38.261Z,4.40
2017-11-27T09:17:05.717Z,4.50
2017-11-27T09:19:33.189Z,4.60
2017-11-27T09:22:01.400Z,4.80
2017-11-27T09:24:28.873Z,4.80
2017-11-27T09:26:56.325Z,4.90
2017-11-27T09:29:23.759Z,5.10
2017-11-27T09:31:51.196Z,5.30
2017-11-27T09:34:18.638Z,5.70
2017-11-27T09:36:46.069Z,5.80
2017-11-27T09:39:13.553Z,5.90
2017-11-27T09:41:41.215Z,6.10
2017-11-27T09:44:09.437Z,6.30
2017-11-27T09:46:36.885Z,6.30
2017-11-27T09:49:04.335Z,6.50
2017-11-27T09:51:31.756Z,6.40
2017-11-27T09:53:59.208Z,6.20
2017-11-27T09:56:26.638Z,6.30
2017-11-27T09:58:54.123Z,6.30
2017-11-27T10:01:21.536Z,6.40
2017-11-27T10:03:48.976Z,6.40
2017-11-27T10:06:16.411Z,6.20
2017-11-27T10:08:43.881Z,5.90
2017-11-27T10:11:11.314Z,5.70
2017-11-27T10:13:38.761Z,5.70
2017-11-27T10:16:06.208Z,5.70
2017-11-27T10:18:35.155Z,5.70
2017-11-27T10:21:02.592Z,5.70
2017-11-27T10:23:30.062Z,5.60
2017-11-27T10:25:57.522Z,5.60
2017-11-27T10:28:24.970Z,5.60
2017-11-27T10:30:52.406Z,5.50
2017-11-27T10:33:19.941Z,5.50
2017-11-27T10:35:47.382Z,5.30
2017-11-27T10:38:14.845Z,5.20
2017-11-27T10:40:42.285Z,5.20
2017-11-27T10:43:09.746Z,5.30
2017-11-27T10:45:37.958Z,5.20
2017-11-27T10:48:05.387Z,5.20
2017-11-27T10:50:33.618Z,5.10
2017-11-27T10:53:01.106Z,5.10
2017-11-27T10:55:28.727Z,5.10
2017-11-27T10:57:56.166Z,5.10
2017-11-27T11:00:23.606Z,5.10
2017-11-27T11:02:51.162Z,5.10
2017-11-27T11:05:19.410Z,5.00
2017-11-27T11:07:46.855Z,5.10
2017-11-27T11:10:14.291Z,5.20
2017-11-27T11:12:41.747Z,5.10
2017-11-27T11:15:09.302Z,5.00
2017-11-27T11:17:37.511Z,5.00
2017-11-27T11:20:04.978Z,5.00
2017-11-27T11:22:32.410Z,5.00
2017-11-27T11:24:59.844Z,5.00
2017-11-27T11:27:28.025Z,5.10
2017-11-27T11:29:55.500Z,5.10
2017-11-27T11:32:22.919Z,5.20
2017-11-27T11:34:50.363Z,5.10
2017-11-27T11:37:17.801Z,5.20
2017-11-27T11:39:45.238Z,5.30
2017-11-27T11:42:12.660Z,5.40
2017-11-27T11:44:40.102Z,5.40
2017-11-27T11:47:07.578Z,5.30
2017-11-27T11:49:35.029Z,5.30
2017-11-27T11:52:03.239Z,5.40
2017-11-27T11:54:30.721Z,5.40
2017-11-27T11:56:58.145Z,5.50
2017-11-27T11:59:25.584Z,5.50
2017-11-27T12:01:53.022Z,5.50
2017-11-27T12:04:20.486Z,5.60
2017-11-27T12:06:47.936Z,5.60
2017-11-27T12:09:15.473Z,5.70
2017-11-27T12:11:42.908Z,5.70
2017-11-27T12:14:10.456Z,5.90
2017-11-27T12:16:37.889Z,5.90
2017-11-27T12:19:05.528Z,5.90
2017-11-27T12:21:32.957Z,5.90
2017-11-27T12:24:00.440Z,5.80
2017-11-27T12:26:28.889Z,5.80
2017-11-27T12:28:56.326Z,5.80
2017-11-27T12:31:23.755Z,5.80
2017-11-27T12:33:51.237Z,5.80
2017-11-27T12:36:18.681Z,5.80
2017-11-27T12:38:46.125Z,5.80
2017-11-27T12:41:13.570Z,5.90
2017-11-27T12:43:41.003Z,5.90
2017-11-27T12:46:08.538Z,5.90
2017-11-27T12:48:36.139Z,5.90
2017-11-27T12:51:03.596Z,5.90
2017-11-27T12:53:31.052Z,6.00
2017-11-27T12:55:58.486Z,5.90
2017-11-27T12:58:25.968Z,5.80
2017-11-27T13:00:54.187Z,5.90
2017-11-27T13:03:22.653Z,5.90
2017-11-27T13:05:50.098Z,6.00
2017-11-27T13:08:17.533Z,6.10
2017-11-27T13:10:44.992Z,6.10
2017-11-27T13:13:12.534Z,6.00
2017-11-27T13:15:39.970Z,6.00
2017-11-27T13:18:07.400Z,6.00
2017-11-27T13:20:34.833Z,5.90
2017-11-27T13:23:02.285Z,6.00
2017-11-27T13:25:29.759Z,6.00
2017-11-27T13:27:57.294Z,6.00
2017-11-27T13:30:24.732Z,6.10
2017-11-27T13:32:52.224Z,6.10
2017-11-27T13:35:19.712Z,6.10
2017-11-27T13:37:47.158Z,6.10
2017-11-27T13:40:14.589Z,6.10
2017-11-27T13:42:42.158Z,6.20
2017-11-27T13:45:10.417Z,6.10
2017-11-27T13:47:37.853Z,6.20
2017-11-27T13:50:05.331Z,6.10
2017-11-27T13:52:32.755Z,6.10
2017-11-27T13:55:00.182Z,6.20
2017-11-27T13:57:27.624Z,6.20
2017-11-27T13:59:55.116Z,6.20
2017-11-27T14:02:22.642Z,6.20
2017-11-27T14:04:50.106Z,6.00
2017-11-27T14:07:17.537Z,6.00
2017-11-27T14:09:44.985Z,6.10
2017-11-27T14:12:12.442Z,6.10
2017-11-27T14:14:40.005Z,6.10
2017-11-27T14:17:07.459Z,6.00
2017-11-27T14:19:35.694Z,5.90
2017-11-27T14:22:03.153Z,5.90
2017-11-27T14:24:30.606Z,5.80
2017-11-27T14:26:59.218Z,5.80
2017-11-27T14:29:26.667Z,5.80
2017-11-27T14:31:54.102Z,5.80
2017-11-27T14:34:21.575Z,5.80
2017-11-27T14:36:49.018Z,5.80
2017-11-27T14:39:16.571Z,5.80
2017-11-27T14:41:44.013Z,5.80
2017-11-27T14:44:11.474Z,5.70
2017-11-27T14:46:39.694Z,5.70
2017-11-27T14:49:07.116Z,5.70
2017-11-27T14:51:34.624Z,5.70
2017-11-27T14:54:02.118Z,5.70
2017-11-27T14:56:29.555Z,5.70
2017-11-27T14:58:57.149Z,5.70
2017-11-27T15:01:24.594Z,5.70
2017-11-27T15:03:52.037Z,5.60
2017-11-27T15:06:19.506Z,5.60
2017-11-27T15:08:47.857Z,5.60
2017-11-27T15:11:15.306Z,5.60
2017-11-27T15:13:43.608Z,5.60
2017-11-27T15:16:11.050Z,5.60
2017-11-27T15:18:38.496Z,5.50
2017-11-27T15:21:05.991Z,5.60
2017-11-27T15:23:33.514Z,5.60
2017-11-27T15:26:01.077Z,5.60
2017-11-27T15:28:28.500Z,5.70
2017-11-27T15:30:55.947Z,5.70
2017-11-27T15:33:23.391Z,5.70
2017-11-27T15:35:50.834Z,5.70
2017-11-27T15:38:18.310Z,5.70
2017-11-27T15:40:45.750Z,5.60
2017-11-27T15:43:14.381Z,5.50
2017-11-27T15:45:41.840Z,5.50
2017-11-27T15:48:09.281Z,5.60
2017-11-27T15:50:36.791Z,5.50
2017-11-27T15:53:04.231Z,5.60
2017-11-27T15:55:31.710Z,5.60
2017-11-27T15:57:59.155Z,5.60
2017-11-27T16:00:26.597Z,5.70
2017-11-27T16:02:54.158Z,5.60
2017-11-27T16:05:21.601Z,5.60
2017-11-27T16:07:49.106Z,5.60
2017-11-27T16:10:16.617Z,5.50
2017-11-27T16:12:44.826Z,5.50
2017-11-27T16:15:12.329Z,5.40
2017-11-27T16:17:39.862Z,5.40
2017-11-27T16:20:07.385Z,5.40
2017-11-27T16:22:35.595Z,5.30
2017-11-27T16:25:03.045Z,5.20
2017-11-27T16:27:30.497Z,5.30
2017-11-27T16:29:57.966Z,5.20
2017-11-27T16:32:25.434Z,5.20
2017-11-27T16:34:53.673Z,5.20
2017-11-27T16:37:21.961Z,5.10
2017-11-27T16:39:50.191Z,5.10
2017-11-27T16:42:17.635Z,5.10
2017-11-27T16:44:45.080Z,5.10
2017-11-27T16:47:12.547Z,5.20
2017-11-27T16:49:40.005Z,5.20
2017-11-27T16:52:07.867Z,5.20
2017-11-27T16:54:35.339Z,5.30
2017-11-27T16:57:02.778Z,5.30
2017-11-27T16:59:32.571Z,5.20
2017-11-27T17:02:00.013Z,5.20
2017-11-27T17:04:27.566Z,5.30
2017-11-27T17:06:55.143Z,5.30
2017-11-27T17:09:23.349Z,5.30
2017-11-27T17:11:50.810Z,5.30
2017-11-27T17:14:18.286Z,5.30
2017-11-27T17:16:46.523Z,5.30
2017-11-27T17:19:13.982Z,5.30
2017-11-27T17:21:42.207Z,5.30
2017-11-27T17:24:09.650Z,5.30
2017-11-27T17:26:37.094Z,5.30
2017-11-27T17:29:04.547Z,5.40
2017-11-27T17:31:32.007Z,5.40
2017-11-27T17:33:59.447Z,5.40
2017-11-27T17:36:26.884Z,5.40
2017-11-27T17:38:54.340Z,5.40
2017-11-27T17:41:22.539Z,5.30
2017-11-27T17:43:49.969Z,5.30
2017-11-27T17:46:17.411Z,5.30
2017-11-27T17:48:45.608Z,5.30
2017-11-27T17:51:13.047Z,5.30
2017-11-27T17:53:40.480Z,5.30
2017-11-27T17:56:07.966Z,5.30
2017-11-27T17:58:36.171Z,5.20
2017-11-27T18:01:03.670Z,5.20
2017-11-27T18:03:31.143Z,5.20
2017-11-27T18:05:59.379Z,5.20
2017-11-27T18:08:26.813Z,5.30
2017-11-27T18:10:54.251Z,5.30
2017-11-27T18:13:21.695Z,5.30
2017-11-27T18:15:49.130Z,5.30
2017-11-27T18:18:16.580Z,5.30
2017-11-27T18:20:44.028Z,5.30
2017-11-27T18:23:11.474Z,5.30
2017-11-27T18:25:39.017Z,5.30
2017-11-27T18:28:06.464Z,5.30
2017-11-27T18:30:33.924Z,5.40
2017-11-27T18:33:01.355Z,5.40
2017-11-27T18:35:28.890Z,5.40
2017-11-27T18:37:56.321Z,5.30
2017-11-27T18:40:23.755Z,5.30
2017-11-27T18:42:51.193Z,5.30
2017-11-27T18:45:18.642Z,5.30
2017-11-27T18:47:46.073Z,5.30
2017-11-27T18:50:13.493Z,5.30
2017-11-27T18:52:40.942Z,5.30
2017-11-27T18:55:08.374Z,5.30
2017-11-27T18:57:35.832Z,5.30
2017-11-27T19:00:03.312Z,5.30
2017-11-27T19:02:30.818Z,5.20
2017-11-27T19:04:58.244Z,5.20
2017-11-27T19:07:25.811Z,5.20
2017-11-27T19:09:53.239Z,5.20
2017-11-27T19:12:20.693Z,5.10
2017-11-27T19:14:48.180Z,5.20
2017-11-27T19:17:15.658Z,5.10
2017-11-27T19:19:43.082Z,5.20
2017-11-27T19:22:10.513Z,5.10
2017-11-27T19:24:37.986Z,5.20
2017-11-27T19:27:05.578Z,5.20
2017-11-27T19:29:33.818Z,5.20
2017-11-27T19:32:01.252Z,5.20
2017-11-27T19:34:28.734Z,5.20
2017-11-27T19:36:56.933Z,5.10
2017-11-27T19:39:24.384Z,5.10
2017-11-27T19:41:51.818Z,5.10
2017-11-27T19:44:19.266Z,5.20
2017-11-27T19:46:46.699Z,5.10
2017-11-27T19:49:14.141Z,5.10
2017-11-27T19:51:41.574Z,5.10
2017-11-27T19:54:09.028Z,5.10
2017-11-27T19:56:36.515Z,5.10
2017-11-27T19:59:04.748Z,5.10
2017-11-27T20:01:32.191Z,5.10
2017-11-27T20:03:59.662Z,5.10
2017-11-27T20:06:27.093Z,5.10
2017-11-27T20:08:54.549Z,5.10
2017-11-27T20:11:22.794Z,5.10
2017-11-27T20:13:50.287Z,5.10
2017-11-27T20:16:17.727Z,5.10
2017-11-27T20:18:45.224Z,5.10
2017-11-27T20:21:12.657Z,5.10
2017-11-27T20:23:40.085Z,5.20
2017-11-27T20:26:07.831Z,5.20
2017-11-27T20:28:35.298Z,5.20
2017-11-27T20:31:02.720Z,5.20
2017-11-27T20:33:30.156Z,5.20
2017-11-27T20:35:57.590Z,5.30
2017-11-27T20:38:25.035Z,5.30
2017-11-27T20:40:52.478Z,5.20
2017-11-27T20:43:19.922Z,5.20
2017-11-27T20:45:47.408Z,5.30
2017-11-27T20:48:14.853Z,5.40
2017-11-27T20:50:42.298Z,5.50
2017-11-27T20:53:10.494Z,5.50
2017-11-27T20:55:37.938Z,5.50
2017-11-27T20:58:05.367Z,5.50
2017-11-27T21:00:32.806Z,5.50
2017-11-27T21:03:00.233Z,5.40
2017-11-27T22:27:24.751Z,5.50
2017-11-27T22:29:52.181Z,5.00
2017-11-27T22:32:19.615Z,5.00
2017-11-27T22:34:47.051Z,5.10
2017-11-27T22:37:14.526Z,5.10
2017-11-27T22:39:41.982Z,5.10
2017-11-27T22:42:09.535Z,5.20
2017-11-27T22:44:37.069Z,5.20
2017-11-27T22:47:04.508Z,5.30
2017-11-27T22:49:31.963Z,5.30
2017-11-27T22:52:00.350Z,5.30
2017-11-27T22:54:27.785Z,5.30
2017-11-27T22:56:56.009Z,5.20
2017-11-27T22:59:23.574Z,5.20
2017-11-27T23:01:51.011Z,5.30
2017-11-27T23:04:18.462Z,5.30
2017-11-27T23:06:45.901Z,5.40
2017-11-27T23:09:13.320Z,5.40
2017-11-27T23:11:40.770Z,5.40
2017-11-27T23:14:08.227Z,5.50
2017-11-27T23:16:35.772Z,5.50
2017-11-27T23:19:03.314Z,5.50
2017-11-27T23:21:30.760Z,5.50
2017-11-27T23:23:58.191Z,5.50
2017-11-27T23:26:25.619Z,5.40
2017-11-27T23:28:53.051Z,5.40
2017-11-27T23:31:20.513Z,5.40
2017-11-27T23:33:47.942Z,5.50
2017-11-27T23:36:15.387Z,5.50
2017-11-27T23:38:42.806Z,5.50
2017-11-27T23:41:10.289Z,5.50
2017-11-27T23:43:37.826Z,5.50
2017-11-27T23:46:05.260Z,5.50
2017-11-27T23:48:32.711Z,5.50
2017-11-27T23:51:00.170Z,5.60
2017-11-27T23:53:27.606Z,5.50
2017-11-27T23:55:55.041Z,5.50
2017-11-27T23:58:22.465Z,5.50
